sensor_id;sensor_type;location;lat;lon;timestamp;noise_LAeq;noise_LA_min;noise_LA_max;noise_LA01;noise_LA95
70245;Laerm;57637;49.272;8.590;2023-03-15T00:01:24;40.52;35.97;46.30;;
70245;Laerm;57637;49.272;8.590;2023-03-15T00:03:51;40.77;36.12;47.60;;
70245;Laerm;57637;49.272;8.590;2023-03-15T00:06:19;38.58;35.07;44.31;;
70245;Laerm;57637;49.272;8.590;2023-03-15T00:08:45;39.49;35.76;43.45;;
70245;Laerm;57637;49.272;8.590;2023-03-15T00:11:12;40.88;35.46;47.51;;
70245;Laerm;57637;49.272;8.590;2023-03-15T00:13:38;37.22;33.54;49.44;;
70245;Laerm;57637;49.272;8.590;2023-03-15T00:16:04;38.09;34.13;42.89;;
70245;Laerm;57637;49.272;8.590;2023-03-15T00:18:30;38.00;33.42;43.41;;
70245;Laerm;57637;49.272;8.590;2023-03-15T00:20:56;38.41;33.98;50.29;;
70245;Laerm;57637;49.272;8.590;2023-03-15T00:23:21;39.23;34.81;55.01;;
70245;Laerm;57637;49.272;8.590;2023-03-15T00:25:48;38.40;34.40;56.43;;
70245;Laerm;57637;49.272;8.590;2023-03-15T00:28:14;38.27;34.70;43.69;;
70245;Laerm;57637;49.272;8.590;2023-03-15T00:30:40;39.10;35.71;46.30;;
70245;Laerm;57637;49.272;8.590;2023-03-15T00:33:05;39.07;35.09;47.50;;
70245;Laerm;57637;49.272;8.590;2023-03-15T00:35:31;38.68;34.66;42.65;;
70245;Laerm;57637;49.272;8.590;2023-03-15T00:38:00;38.56;34.27;44.89;;
70245;Laerm;57637;49.272;8.590;2023-03-15T00:40:25;37.75;34.12;43.02;;
70245;Laerm;57637;49.272;8.590;2023-03-15T00:42:51;37.67;34.57;44.60;;
70245;Laerm;57637;49.272;8.590;2023-03-15T00:45:20;38.95;33.48;50.08;;
70245;Laerm;57637;49.272;8.590;2023-03-15T00:47:50;39.05;34.40;56.81;;
70245;Laerm;57637;49.272;8.590;2023-03-15T00:50:15;37.96;33.58;47.73;;
70245;Laerm;57637;49.272;8.590;2023-03-15T00:52:41;38.07;34.84;44.05;;
70245;Laerm;57637;49.272;8.590;2023-03-15T00:55:10;38.34;34.89;42.10;;
70245;Laerm;57637;49.272;8.590;2023-03-15T00:57:38;37.95;34.43;43.81;;
70245;Laerm;57637;49.272;8.590;2023-03-15T01:00:10;37.90;33.79;42.14;;
70245;Laerm;57637;49.272;8.590;2023-03-15T01:02:36;36.93;33.50;40.86;;
70245;Laerm;57637;49.272;8.590;2023-03-15T01:05:03;37.15;33.32;41.07;;
70245;Laerm;57637;49.272;8.590;2023-03-15T01:07:29;36.63;33.31;48.12;;
70245;Laerm;57637;49.272;8.590;2023-03-15T01:09:57;37.17;33.59;45.27;;
70245;Laerm;57637;49.272;8.590;2023-03-15T01:12:23;36.46;32.99;42.32;;
70245;Laerm;57637;49.272;8.590;2023-03-15T01:14:48;36.04;32.95;39.74;;
70245;Laerm;57637;49.272;8.590;2023-03-15T01:17:13;36.59;33.17;43.72;;
70245;Laerm;57637;49.272;8.590;2023-03-15T01:19:39;36.86;33.49;40.97;;
70245;Laerm;57637;49.272;8.590;2023-03-15T01:22:04;37.80;34.40;42.16;;
70245;Laerm;57637;49.272;8.590;2023-03-15T01:24:29;37.17;33.64;42.49;;
70245;Laerm;57637;49.272;8.590;2023-03-15T01:26:55;39.27;33.82;51.10;;
70245;Laerm;57637;49.272;8.590;2023-03-15T01:29:20;39.49;34.24;50.48;;
70245;Laerm;57637;49.272;8.590;2023-03-15T01:31:45;37.25;33.23;44.34;;
70245;Laerm;57637;49.272;8.590;2023-03-15T01:34:11;38.01;33.65;47.84;;
70245;Laerm;57637;49.272;8.590;2023-03-15T01:36:36;38.39;34.80;48.63;;
70245;Laerm;57637;49.272;8.590;2023-03-15T01:39:02;38.40;34.53;46.33;;
70245;Laerm;57637;49.272;8.590;2023-03-15T01:41:27;37.92;34.41;50.39;;
70245;Laerm;57637;49.272;8.590;2023-03-15T01:43:52;38.30;34.41;45.02;;
70245;Laerm;57637;49.272;8.590;2023-03-15T01:46:31;37.21;32.85;48.82;;
70245;Laerm;57637;49.272;8.590;2023-03-15T01:49:13;39.64;35.16;46.66;;
70245;Laerm;57637;49.272;8.590;2023-03-15T01:51:53;38.12;34.67;42.61;;
70245;Laerm;57637;49.272;8.590;2023-03-15T01:54:40;40.12;35.20;46.28;;
70245;Laerm;57637;49.272;8.590;2023-03-15T01:57:11;39.17;34.30;44.00;;
70245;Laerm;57637;49.272;8.590;2023-03-15T01:59:58;38.91;34.47;44.60;;
70245;Laerm;57637;49.272;8.590;2023-03-15T02:02:26;39.04;34.41;47.81;;
70245;Laerm;57637;49.272;8.590;2023-03-15T02:05:14;39.87;35.18;44.98;;
70245;Laerm;57637;49.272;8.590;2023-03-15T02:07:42;37.99;34.62;46.02;;
70245;Laerm;57637;49.272;8.590;2023-03-15T02:10:16;37.89;34.25;42.84;;
70245;Laerm;57637;49.272;8.590;2023-03-15T02:12:45;38.93;34.54;46.51;;
70245;Laerm;57637;49.272;8.590;2023-03-15T02:15:14;38.24;34.06;42.93;;
70245;Laerm;57637;49.272;8.590;2023-03-15T02:17:42;38.49;34.79;42.63;;
70245;Laerm;57637;49.272;8.590;2023-03-15T02:20:33;40.25;35.42;44.23;;
70245;Laerm;57637;49.272;8.590;2023-03-15T02:23:04;39.04;34.49;44.74;;
70245;Laerm;57637;49.272;8.590;2023-03-15T02:26:02;38.55;34.43;45.17;;
70245;Laerm;57637;49.272;8.590;2023-03-15T02:28:31;40.84;35.39;50.89;;
70245;Laerm;57637;49.272;8.590;2023-03-15T02:30:57;40.70;35.40;52.31;;
70245;Laerm;57637;49.272;8.590;2023-03-15T02:33:26;41.05;36.17;48.90;;
70245;Laerm;57637;49.272;8.590;2023-03-15T02:35:54;39.38;35.52;46.57;;
70245;Laerm;57637;49.272;8.590;2023-03-15T02:38:20;39.89;35.71;49.53;;
70245;Laerm;57637;49.272;8.590;2023-03-15T02:40:47;38.96;34.92;48.61;;
70245;Laerm;57637;49.272;8.590;2023-03-15T02:43:19;39.19;34.50;47.71;;
70245;Laerm;57637;49.272;8.590;2023-03-15T02:45:45;37.63;34.02;44.14;;
70245;Laerm;57637;49.272;8.590;2023-03-15T02:48:11;37.56;34.22;42.52;;
70245;Laerm;57637;49.272;8.590;2023-03-15T02:50:37;37.49;33.91;43.57;;
70245;Laerm;57637;49.272;8.590;2023-03-15T02:53:03;37.93;34.32;46.48;;
70245;Laerm;57637;49.272;8.590;2023-03-15T02:55:29;37.75;33.40;43.50;;
70245;Laerm;57637;49.272;8.590;2023-03-15T02:57:57;38.16;34.96;42.81;;
70245;Laerm;57637;49.272;8.590;2023-03-15T03:00:22;39.63;35.49;44.89;;
70245;Laerm;57637;49.272;8.590;2023-03-15T03:02:48;38.69;34.86;43.89;;
70245;Laerm;57637;49.272;8.590;2023-03-15T03:05:14;38.16;34.57;45.70;;
70245;Laerm;57637;49.272;8.590;2023-03-15T03:07:41;39.62;35.02;49.18;;
70245;Laerm;57637;49.272;8.590;2023-03-15T03:10:11;38.55;34.49;43.36;;
70245;Laerm;57637;49.272;8.590;2023-03-15T03:12:37;38.27;34.89;42.08;;
70245;Laerm;57637;49.272;8.590;2023-03-15T03:15:03;38.95;35.32;43.18;;
70245;Laerm;57637;49.272;8.590;2023-03-15T03:17:29;39.17;35.12;43.53;;
70245;Laerm;57637;49.272;8.590;2023-03-15T03:19:55;38.82;34.90;43.55;;
70245;Laerm;57637;49.272;8.590;2023-03-15T03:22:21;39.90;35.78;49.34;;
70245;Laerm;57637;49.272;8.590;2023-03-15T03:24:49;39.40;34.43;46.35;;
70245;Laerm;57637;49.272;8.590;2023-03-15T03:27:15;41.47;36.24;49.51;;
70245;Laerm;57637;49.272;8.590;2023-03-15T03:29:41;40.51;34.97;46.79;;
70245;Laerm;57637;49.272;8.590;2023-03-15T03:32:07;40.77;36.73;46.10;;
70245;Laerm;57637;49.272;8.590;2023-03-15T03:34:33;39.71;35.48;44.78;;
70245;Laerm;57637;49.272;8.590;2023-03-15T03:36:58;39.13;35.30;44.53;;
70245;Laerm;57637;49.272;8.590;2023-03-15T03:39:24;40.42;34.72;46.69;;
70245;Laerm;57637;49.272;8.590;2023-03-15T03:41:49;39.89;35.32;45.17;;
70245;Laerm;57637;49.272;8.590;2023-03-15T03:44:15;39.77;35.60;44.60;;
70245;Laerm;57637;49.272;8.590;2023-03-15T03:46:41;40.60;36.28;45.69;;
70245;Laerm;57637;49.272;8.590;2023-03-15T03:49:06;39.95;35.87;43.71;;
70245;Laerm;57637;49.272;8.590;2023-03-15T03:51:31;40.58;36.66;45.20;;
70245;Laerm;57637;49.272;8.590;2023-03-15T03:53:59;41.48;36.79;59.73;;
70245;Laerm;57637;49.272;8.590;2023-03-15T03:56:24;40.86;35.53;46.47;;
70245;Laerm;57637;49.272;8.590;2023-03-15T03:58:50;41.54;37.04;46.27;;
70245;Laerm;57637;49.272;8.590;2023-03-15T04:01:16;41.19;37.30;46.37;;
70245;Laerm;57637;49.272;8.590;2023-03-15T04:03:41;41.13;36.78;47.10;;
70245;Laerm;57637;49.272;8.590;2023-03-15T04:06:06;41.51;37.44;46.07;;
70245;Laerm;57637;49.272;8.590;2023-03-15T04:08:32;43.23;37.20;51.06;;
70245;Laerm;57637;49.272;8.590;2023-03-15T04:10:57;43.56;37.64;55.12;;
70245;Laerm;57637;49.272;8.590;2023-03-15T04:13:23;40.84;36.20;47.30;;
70245;Laerm;57637;49.272;8.590;2023-03-15T04:15:50;41.46;37.23;50.18;;
70245;Laerm;57637;49.272;8.590;2023-03-15T04:18:16;40.67;36.96;44.36;;
70245;Laerm;57637;49.272;8.590;2023-03-15T04:20:42;40.90;36.98;45.25;;
70245;Laerm;57637;49.272;8.590;2023-03-15T04:23:13;40.91;35.68;46.51;;
70245;Laerm;57637;49.272;8.590;2023-03-15T04:25:38;40.26;35.89;46.74;;
70245;Laerm;57637;49.272;8.590;2023-03-15T04:28:04;41.25;36.40;49.46;;
70245;Laerm;57637;49.272;8.590;2023-03-15T04:30:29;40.53;36.49;46.59;;
70245;Laerm;57637;49.272;8.590;2023-03-15T04:32:56;41.89;36.50;51.88;;
70245;Laerm;57637;49.272;8.590;2023-03-15T04:35:29;41.81;36.50;50.67;;
70245;Laerm;57637;49.272;8.590;2023-03-15T04:37:55;41.40;37.27;49.95;;
70245;Laerm;57637;49.272;8.590;2023-03-15T04:40:21;39.91;36.34;43.95;;
70245;Laerm;57637;49.272;8.590;2023-03-15T04:42:52;39.53;35.52;44.34;;
70245;Laerm;57637;49.272;8.590;2023-03-15T04:45:24;40.89;36.32;47.74;;
70245;Laerm;57637;49.272;8.590;2023-03-15T04:47:53;41.84;35.94;51.68;;
70245;Laerm;57637;49.272;8.590;2023-03-15T04:50:20;42.89;36.24;52.57;;
70245;Laerm;57637;49.272;8.590;2023-03-15T04:52:46;45.01;37.21;53.89;;
70245;Laerm;57637;49.272;8.590;2023-03-15T04:55:12;40.98;35.82;51.35;;
70245;Laerm;57637;49.272;8.590;2023-03-15T04:57:37;40.93;36.29;51.59;;
70245;Laerm;57637;49.272;8.590;2023-03-15T05:00:03;39.77;35.86;47.67;;
70245;Laerm;57637;49.272;8.590;2023-03-15T05:02:32;45.22;36.88;54.32;;
70245;Laerm;57637;49.272;8.590;2023-03-15T05:04:57;40.64;36.19;53.04;;
70245;Laerm;57637;49.272;8.590;2023-03-15T05:07:22;40.63;35.78;60.75;;
70245;Laerm;57637;49.272;8.590;2023-03-15T05:09:48;39.67;35.94;57.01;;
70245;Laerm;57637;49.272;8.590;2023-03-15T05:12:13;40.74;36.04;55.46;;
70245;Laerm;57637;49.272;8.590;2023-03-15T05:14:40;40.92;36.84;57.06;;
70245;Laerm;57637;49.272;8.590;2023-03-15T05:17:05;40.65;36.52;66.55;;
70245;Laerm;57637;49.272;8.590;2023-03-15T05:19:31;41.63;35.81;61.12;;
70245;Laerm;57637;49.272;8.590;2023-03-15T05:22:00;40.51;35.15;54.34;;
70245;Laerm;57637;49.272;8.590;2023-03-15T05:24:25;42.97;36.72;58.39;;
70245;Laerm;57637;49.272;8.590;2023-03-15T05:26:51;42.22;36.85;61.08;;
70245;Laerm;57637;49.272;8.590;2023-03-15T05:29:19;49.42;36.58;68.42;;
70245;Laerm;57637;49.272;8.590;2023-03-15T05:31:46;41.04;36.73;57.90;;
70245;Laerm;57637;49.272;8.590;2023-03-15T05:34:12;51.36;35.91;76.25;;
70245;Laerm;57637;49.272;8.590;2023-03-15T05:36:37;40.61;36.20;55.97;;
70245;Laerm;57637;49.272;8.590;2023-03-15T05:39:02;41.84;37.84;52.02;;
70245;Laerm;57637;49.272;8.590;2023-03-15T05:41:29;41.07;37.37;54.06;;
70245;Laerm;57637;49.272;8.590;2023-03-15T05:43:54;41.86;37.81;48.13;;
70245;Laerm;57637;49.272;8.590;2023-03-15T05:46:19;41.82;36.52;50.59;;
70245;Laerm;57637;49.272;8.590;2023-03-15T05:48:47;41.02;37.50;54.84;;
70245;Laerm;57637;49.272;8.590;2023-03-15T05:51:13;41.12;37.17;59.65;;
70245;Laerm;57637;49.272;8.590;2023-03-15T05:53:38;47.93;37.84;66.30;;
70245;Laerm;57637;49.272;8.590;2023-03-15T05:56:04;47.10;38.23;65.80;;
70245;Laerm;57637;49.272;8.590;2023-03-15T05:58:29;50.62;37.88;66.87;;
70245;Laerm;57637;49.272;8.590;2023-03-15T06:00:55;57.22;38.23;76.97;;
70245;Laerm;57637;49.272;8.590;2023-03-15T06:03:20;57.80;37.39;78.26;;
70245;Laerm;57637;49.272;8.590;2023-03-15T06:05:45;52.02;37.36;74.30;;
70245;Laerm;57637;49.272;8.590;2023-03-15T06:08:11;55.60;38.37;76.60;;
70245;Laerm;57637;49.272;8.590;2023-03-15T06:10:36;48.47;38.91;65.72;;
70245;Laerm;57637;49.272;8.590;2023-03-15T06:13:02;44.74;38.15;61.10;;
70245;Laerm;57637;49.272;8.590;2023-03-15T06:15:27;45.52;37.61;63.74;;
70245;Laerm;57637;49.272;8.590;2023-03-15T06:17:52;44.03;38.39;56.52;;
70245;Laerm;57637;49.272;8.590;2023-03-15T06:20:18;46.71;37.76;59.12;;
70245;Laerm;57637;49.272;8.590;2023-03-15T06:22:43;57.33;41.87;76.73;;
70245;Laerm;57637;49.272;8.590;2023-03-15T06:25:09;58.05;38.61;78.61;;
70245;Laerm;57637;49.272;8.590;2023-03-15T06:27:35;44.30;38.49;56.59;;
70245;Laerm;57637;49.272;8.590;2023-03-15T06:30:01;48.85;38.19;74.61;;
70245;Laerm;57637;49.272;8.590;2023-03-15T06:32:26;55.13;38.37;78.79;;
70245;Laerm;57637;49.272;8.590;2023-03-15T06:34:52;53.88;37.27;76.62;;
70245;Laerm;57637;49.272;8.590;2023-03-15T06:37:17;45.20;37.21;62.78;;
70245;Laerm;57637;49.272;8.590;2023-03-15T06:39:43;45.98;36.28;67.30;;
70245;Laerm;57637;49.272;8.590;2023-03-15T06:42:12;55.39;37.18;77.47;;
70245;Laerm;57637;49.272;8.590;2023-03-15T06:44:38;54.36;37.11;71.14;;
70245;Laerm;57637;49.272;8.590;2023-03-15T06:47:04;53.39;37.13;72.73;;
70245;Laerm;57637;49.272;8.590;2023-03-15T06:49:29;52.40;37.50;72.48;;
70245;Laerm;57637;49.272;8.590;2023-03-15T06:51:55;48.56;37.77;69.27;;
70245;Laerm;57637;49.272;8.590;2023-03-15T06:54:21;49.94;37.83;67.35;;
70245;Laerm;57637;49.272;8.590;2023-03-15T06:56:46;45.02;36.49;63.06;;
70245;Laerm;57637;49.272;8.590;2023-03-15T06:59:12;44.74;36.57;62.51;;
70245;Laerm;57637;49.272;8.590;2023-03-15T07:01:37;44.06;37.12;54.84;;
70245;Laerm;57637;49.272;8.590;2023-03-15T07:04:02;44.04;37.03;54.98;;
70245;Laerm;57637;49.272;8.590;2023-03-15T07:06:28;44.63;36.34;60.49;;
70245;Laerm;57637;49.272;8.590;2023-03-15T07:08:53;45.31;36.08;67.42;;
70245;Laerm;57637;49.272;8.590;2023-03-15T07:11:19;47.37;37.96;68.71;;
70245;Laerm;57637;49.272;8.590;2023-03-15T07:13:45;53.14;39.44;71.82;;
70245;Laerm;57637;49.272;8.590;2023-03-15T07:16:10;49.81;37.79;65.88;;
70245;Laerm;57637;49.272;8.590;2023-03-15T07:18:36;47.43;37.93;71.65;;
70245;Laerm;57637;49.272;8.590;2023-03-15T07:21:03;60.97;38.14;76.75;;
70245;Laerm;57637;49.272;8.590;2023-03-15T07:23:29;57.20;37.52;74.81;;
70245;Laerm;57637;49.272;8.590;2023-03-15T07:25:55;43.63;36.63;56.22;;
70245;Laerm;57637;49.272;8.590;2023-03-15T07:28:21;42.12;36.48;60.34;;
70245;Laerm;57637;49.272;8.590;2023-03-15T07:30:57;44.35;35.70;72.19;;
70245;Laerm;57637;49.272;8.590;2023-03-15T07:33:25;40.71;36.51;55.33;;
70245;Laerm;57637;49.272;8.590;2023-03-15T07:35:51;42.31;36.64;57.47;;
70245;Laerm;57637;49.272;8.590;2023-03-15T07:38:18;41.69;36.39;57.29;;
70245;Laerm;57637;49.272;8.590;2023-03-15T07:40:43;41.62;36.41;58.20;;
70245;Laerm;57637;49.272;8.590;2023-03-15T07:43:09;41.83;37.49;53.36;;
70245;Laerm;57637;49.272;8.590;2023-03-15T07:45:34;43.08;36.73;54.56;;
70245;Laerm;57637;49.272;8.590;2023-03-15T07:48:00;42.97;36.00;57.21;;
70245;Laerm;57637;49.272;8.590;2023-03-15T07:50:26;42.63;36.12;55.88;;
70245;Laerm;57637;49.272;8.590;2023-03-15T07:52:51;46.09;35.55;60.81;;
70245;Laerm;57637;49.272;8.590;2023-03-15T07:55:17;50.00;36.77;64.43;;
70245;Laerm;57637;49.272;8.590;2023-03-15T07:57:42;43.55;35.76;58.15;;
70245;Laerm;57637;49.272;8.590;2023-03-15T08:00:09;48.05;36.57;59.23;;
70245;Laerm;57637;49.272;8.590;2023-03-15T08:02:36;44.51;36.44;57.51;;
70245;Laerm;57637;49.272;8.590;2023-03-15T08:05:02;47.81;36.47;68.21;;
70245;Laerm;57637;49.272;8.590;2023-03-15T08:07:28;43.87;36.65;68.58;;
70245;Laerm;57637;49.272;8.590;2023-03-15T08:09:54;40.85;35.33;53.72;;
70245;Laerm;57637;49.272;8.590;2023-03-15T08:12:19;40.17;34.51;56.11;;
70245;Laerm;57637;49.272;8.590;2023-03-15T08:14:44;42.92;33.48;56.37;;
70245;Laerm;57637;49.272;8.590;2023-03-15T08:17:10;43.01;33.44;61.62;;
70245;Laerm;57637;49.272;8.590;2023-03-15T08:19:37;42.71;33.68;57.18;;
70245;Laerm;57637;49.272;8.590;2023-03-15T08:22:03;41.70;35.08;52.11;;
70245;Laerm;57637;49.272;8.590;2023-03-15T08:24:29;39.49;34.15;50.81;;
70245;Laerm;57637;49.272;8.590;2023-03-15T08:26:55;41.28;34.69;53.69;;
70245;Laerm;57637;49.272;8.590;2023-03-15T08:29:20;39.15;34.40;51.95;;
70245;Laerm;57637;49.272;8.590;2023-03-15T08:31:45;39.41;33.84;51.32;;
70245;Laerm;57637;49.272;8.590;2023-03-15T08:34:11;38.44;33.60;50.16;;
70245;Laerm;57637;49.272;8.590;2023-03-15T08:36:36;42.72;34.18;53.69;;
70245;Laerm;57637;49.272;8.590;2023-03-15T08:39:02;45.12;35.61;58.69;;
70245;Laerm;57637;49.272;8.590;2023-03-15T08:41:30;40.10;35.28;62.54;;
70245;Laerm;57637;49.272;8.590;2023-03-15T08:43:55;42.69;35.58;55.41;;
70245;Laerm;57637;49.272;8.590;2023-03-15T08:46:21;42.25;36.45;52.42;;
70245;Laerm;57637;49.272;8.590;2023-03-15T08:48:46;43.55;34.70;54.14;;
70245;Laerm;57637;49.272;8.590;2023-03-15T08:51:11;44.52;36.05;57.13;;
70245;Laerm;57637;49.272;8.590;2023-03-15T08:53:37;40.24;34.37;56.23;;
70245;Laerm;57637;49.272;8.590;2023-03-15T08:56:03;48.96;35.42;66.23;;
70245;Laerm;57637;49.272;8.590;2023-03-15T08:58:29;39.95;34.68;52.29;;
70245;Laerm;57637;49.272;8.590;2023-03-15T09:00:54;44.63;34.24;59.64;;
70245;Laerm;57637;49.272;8.590;2023-03-15T09:03:21;42.57;35.51;59.72;;
70245;Laerm;57637;49.272;8.590;2023-03-15T09:05:47;42.75;35.07;61.14;;
70245;Laerm;57637;49.272;8.590;2023-03-15T09:08:13;45.80;34.77;68.76;;
70245;Laerm;57637;49.272;8.590;2023-03-15T09:10:38;48.63;35.58;68.28;;
70245;Laerm;57637;49.272;8.590;2023-03-15T09:13:04;44.97;34.32;66.50;;
70245;Laerm;57637;49.272;8.590;2023-03-15T09:15:29;46.14;33.80;73.62;;
70245;Laerm;57637;49.272;8.590;2023-03-15T09:17:55;44.54;35.64;58.23;;
70245;Laerm;57637;49.272;8.590;2023-03-15T09:20:20;45.23;34.61;60.04;;
70245;Laerm;57637;49.272;8.590;2023-03-15T09:22:55;46.95;34.73;69.47;;
70245;Laerm;57637;49.272;8.590;2023-03-15T09:25:21;56.07;33.13;68.55;;
70245;Laerm;57637;49.272;8.590;2023-03-15T09:27:48;43.50;33.49;59.41;;
70245;Laerm;57637;49.272;8.590;2023-03-15T09:30:14;39.47;33.88;52.72;;
70245;Laerm;57637;49.272;8.590;2023-03-15T09:32:39;45.45;35.33;67.08;;
70245;Laerm;57637;49.272;8.590;2023-03-15T09:35:07;41.95;34.71;58.84;;
70245;Laerm;57637;49.272;8.590;2023-03-15T09:37:33;44.56;34.87;68.02;;
70245;Laerm;57637;49.272;8.590;2023-03-15T09:39:59;44.99;34.22;59.48;;
70245;Laerm;57637;49.272;8.590;2023-03-15T09:45:12;49.45;37.09;60.09;;
70245;Laerm;57637;49.272;8.590;2023-03-15T09:48:11;42.70;35.02;56.49;;
70245;Laerm;57637;49.272;8.590;2023-03-15T09:53:29;44.64;34.06;71.66;;
70245;Laerm;57637;49.272;8.590;2023-03-15T09:55:57;47.70;34.09;64.65;;
70245;Laerm;57637;49.272;8.590;2023-03-15T09:58:24;46.00;35.44;60.19;;
70245;Laerm;57637;49.272;8.590;2023-03-15T10:00:59;53.89;35.05;73.42;;
70245;Laerm;57637;49.272;8.590;2023-03-15T10:03:49;50.82;35.91;77.99;;
70245;Laerm;57637;49.272;8.590;2023-03-15T10:06:21;44.73;36.15;68.45;;
70245;Laerm;57637;49.272;8.590;2023-03-15T10:08:54;46.36;41.19;56.96;;
70245;Laerm;57637;49.272;8.590;2023-03-15T10:11:33;50.50;41.90;61.54;;
70245;Laerm;57637;49.272;8.590;2023-03-15T10:14:13;47.87;39.26;57.22;;
70245;Laerm;57637;49.272;8.590;2023-03-15T10:16:45;48.10;40.55;58.32;;
70245;Laerm;57637;49.272;8.590;2023-03-15T10:19:30;47.99;40.96;63.29;;
70245;Laerm;57637;49.272;8.590;2023-03-15T10:24:37;46.56;38.23;55.39;;
70245;Laerm;57637;49.272;8.590;2023-03-15T10:27:20;46.56;37.36;56.28;;
70245;Laerm;57637;49.272;8.590;2023-03-15T10:29:48;45.71;36.55;55.24;;
70245;Laerm;57637;49.272;8.590;2023-03-15T10:32:17;42.02;36.08;52.27;;
70245;Laerm;57637;49.272;8.590;2023-03-15T10:34:49;42.05;35.76;52.30;;
70245;Laerm;57637;49.272;8.590;2023-03-15T10:37:17;42.04;36.02;58.40;;
70245;Laerm;57637;49.272;8.590;2023-03-15T10:39:45;44.62;36.09;64.06;;
70245;Laerm;57637;49.272;8.590;2023-03-15T10:42:32;41.38;35.21;61.88;;
70245;Laerm;57637;49.272;8.590;2023-03-15T10:44:59;40.84;34.98;54.59;;
70245;Laerm;57637;49.272;8.590;2023-03-15T10:47:41;42.74;35.80;55.54;;
70245;Laerm;57637;49.272;8.590;2023-03-15T10:50:09;44.68;36.08;60.24;;
70245;Laerm;57637;49.272;8.590;2023-03-15T10:52:44;50.01;36.60;74.02;;
70245;Laerm;57637;49.272;8.590;2023-03-15T10:55:11;48.71;35.24;71.39;;
70245;Laerm;57637;49.272;8.590;2023-03-15T10:57:41;40.93;34.79;55.05;;
70245;Laerm;57637;49.272;8.590;2023-03-15T11:02:50;45.48;36.89;56.25;;
70245;Laerm;57637;49.272;8.590;2023-03-15T11:05:17;51.24;37.65;60.87;;
70245;Laerm;57637;49.272;8.590;2023-03-15T11:07:54;47.16;36.13;58.37;;
70245;Laerm;57637;49.272;8.590;2023-03-15T11:10:21;46.80;36.15;57.91;;
70245;Laerm;57637;49.272;8.590;2023-03-15T11:12:47;43.97;36.59;55.83;;
70245;Laerm;57637;49.272;8.590;2023-03-15T11:15:14;42.29;34.72;64.74;;
70245;Laerm;57637;49.272;8.590;2023-03-15T11:17:43;43.41;36.43;61.59;;
70245;Laerm;57637;49.272;8.590;2023-03-15T11:22:59;43.27;34.74;53.25;;
70245;Laerm;57637;49.272;8.590;2023-03-15T11:25:30;39.98;33.87;52.94;;
70245;Laerm;57637;49.272;8.590;2023-03-15T11:27:57;41.26;34.40;58.67;;
70245;Laerm;57637;49.272;8.590;2023-03-15T11:30:30;40.94;35.07;53.58;;
70245;Laerm;57637;49.272;8.590;2023-03-15T11:33:04;44.18;35.26;58.20;;
70245;Laerm;57637;49.272;8.590;2023-03-15T11:35:37;47.51;36.14;63.51;;
70245;Laerm;57637;49.272;8.590;2023-03-15T11:38:16;45.10;35.69;58.85;;
70245;Laerm;57637;49.272;8.590;2023-03-15T11:40:45;43.94;34.54;56.60;;
70245;Laerm;57637;49.272;8.590;2023-03-15T11:43:25;52.21;34.20;68.34;;
70245;Laerm;57637;49.272;8.590;2023-03-15T11:46:03;46.67;33.68;65.55;;
70245;Laerm;57637;49.272;8.590;2023-03-15T11:48:35;40.85;34.18;51.68;;
70245;Laerm;57637;49.272;8.590;2023-03-15T11:51:06;40.63;33.64;54.97;;
70245;Laerm;57637;49.272;8.590;2023-03-15T11:54:02;42.28;33.17;57.22;;
70245;Laerm;57637;49.272;8.590;2023-03-15T11:56:25;52.50;36.82;69.34;;
70245;Laerm;57637;49.272;8.590;2023-03-15T11:59:10;44.80;35.10;61.62;;
70245;Laerm;57637;49.272;8.590;2023-03-15T12:01:45;47.51;35.06;57.32;;
70245;Laerm;57637;49.272;8.590;2023-03-15T12:06:58;49.39;38.10;57.53;;
70245;Laerm;57637;49.272;8.590;2023-03-15T12:17:56;41.74;34.81;53.93;;
70245;Laerm;57637;49.272;8.590;2023-03-15T12:20:37;41.82;34.41;55.20;;
70245;Laerm;57637;49.272;8.590;2023-03-15T12:23:30;45.37;34.83;65.26;;
70245;Laerm;57637;49.272;8.590;2023-03-15T12:28:35;41.87;34.41;50.56;;
70245;Laerm;57637;49.272;8.590;2023-03-15T12:31:10;46.50;34.85;62.31;;
70245;Laerm;57637;49.272;8.590;2023-03-15T12:33:57;40.27;33.73;48.97;;
70245;Laerm;57637;49.272;8.590;2023-03-15T12:36:35;40.04;34.00;48.33;;
70245;Laerm;57637;49.272;8.590;2023-03-15T12:41:41;43.78;35.31;56.66;;
70245;Laerm;57637;49.272;8.590;2023-03-15T12:46:53;41.71;35.04;54.32;;
70245;Laerm;57637;49.272;8.590;2023-03-15T12:57:20;42.34;36.08;54.81;;
70245;Laerm;57637;49.272;8.590;2023-03-15T13:00:06;43.31;35.58;55.23;;
70245;Laerm;57637;49.272;8.590;2023-03-15T13:02:47;44.12;36.10;58.24;;
70245;Laerm;57637;49.272;8.590;2023-03-15T13:10:35;44.56;37.04;56.97;;
70245;Laerm;57637;49.272;8.590;2023-03-15T13:13:17;41.80;36.01;59.30;;
70245;Laerm;57637;49.272;8.590;2023-03-15T13:23:50;45.16;36.50;55.81;;
70245;Laerm;57637;49.272;8.590;2023-03-15T13:26:43;42.71;36.54;63.91;;
70245;Laerm;57637;49.272;8.590;2023-03-15T13:29:13;42.67;36.27;59.14;;
70245;Laerm;57637;49.272;8.590;2023-03-15T13:31:42;41.45;34.93;51.56;;
70245;Laerm;57637;49.272;8.590;2023-03-15T13:34:22;40.27;34.87;50.39;;
70245;Laerm;57637;49.272;8.590;2023-03-15T13:36:54;44.10;35.23;54.56;;
70245;Laerm;57637;49.272;8.590;2023-03-15T13:39:23;40.55;35.21;48.37;;
70245;Laerm;57637;49.272;8.590;2023-03-15T13:41:59;43.07;36.33;61.24;;
70245;Laerm;57637;49.272;8.590;2023-03-15T13:44:26;43.64;36.01;60.58;;
70245;Laerm;57637;49.272;8.590;2023-03-15T13:46:52;42.46;36.73;54.01;;
70245;Laerm;57637;49.272;8.590;2023-03-15T13:49:19;42.31;35.76;51.54;;
70245;Laerm;57637;49.272;8.590;2023-03-15T13:51:46;41.42;34.40;55.73;;
70245;Laerm;57637;49.272;8.590;2023-03-15T13:54:16;43.28;33.57;55.75;;
70245;Laerm;57637;49.272;8.590;2023-03-15T13:56:58;44.02;36.57;56.28;;
70245;Laerm;57637;49.272;8.590;2023-03-15T13:59:32;41.54;35.46;56.63;;
70245;Laerm;57637;49.272;8.590;2023-03-15T14:02:00;41.90;35.70;50.20;;
70245;Laerm;57637;49.272;8.590;2023-03-15T14:04:31;42.32;36.06;51.71;;
70245;Laerm;57637;49.272;8.590;2023-03-15T14:07:18;41.73;35.59;56.06;;
70245;Laerm;57637;49.272;8.590;2023-03-15T14:09:47;44.68;35.05;60.93;;
70245;Laerm;57637;49.272;8.590;2023-03-15T14:12:20;49.16;36.04;62.26;;
70245;Laerm;57637;49.272;8.590;2023-03-15T14:14:53;48.03;37.63;58.62;;
70245;Laerm;57637;49.272;8.590;2023-03-15T14:17:29;49.22;39.30;61.68;;
70245;Laerm;57637;49.272;8.590;2023-03-15T14:20:04;49.97;37.95;61.05;;
70245;Laerm;57637;49.272;8.590;2023-03-15T14:22:33;50.45;38.68;59.92;;
70245;Laerm;57637;49.272;8.590;2023-03-15T14:25:00;49.14;36.29;71.96;;
70245;Laerm;57637;49.272;8.590;2023-03-15T14:27:28;42.76;36.25;55.44;;
70245;Laerm;57637;49.272;8.590;2023-03-15T14:29:59;41.10;34.87;55.32;;
70245;Laerm;57637;49.272;8.590;2023-03-15T14:32:31;42.03;34.32;59.76;;
70245;Laerm;57637;49.272;8.590;2023-03-15T14:35:19;47.91;35.79;67.87;;
70245;Laerm;57637;49.272;8.590;2023-03-15T14:37:45;47.91;37.42;65.98;;
70245;Laerm;57637;49.272;8.590;2023-03-15T14:40:30;42.83;36.12;51.32;;
70245;Laerm;57637;49.272;8.590;2023-03-15T14:43:04;44.09;36.63;53.01;;
70245;Laerm;57637;49.272;8.590;2023-03-15T14:45:31;41.04;35.91;49.49;;
70245;Laerm;57637;49.272;8.590;2023-03-15T14:50:27;41.87;37.11;51.45;;